Time;durP1;ratioP1;P1;durP2;ratioP2;P2;SDS_P1;SDS_P2;PMS_P1;PMS_P2;Temp;Humidity;BMP_temperature;BMP_pressure;BME280_temperature;BME280_humidity;BME280_pressure;Samples;Min_cycle;Max_cycle;Signal;HPM_P1;HPM_P2
2022/02/07 00:00:47;;;;;;;1.67;0.67;;;5.70;81.90;;;;;;5018947;28;20459;-50
2022/02/07 00:03:58;;;;;;;1.57;0.70;;;5.70;82.20;;;;;;5017880;28;20459;-49
2022/02/07 00:06:05;;;;;;;1.60;0.50;;;5.70;82.30;;;;;;5020382;28;20455;-49
2022/02/07 00:08:35;;;;;;;0.60;0.60;;;5.70;81.80;;;;;;5033513;28;20455;-49
2022/02/07 00:11:03;;;;;;;2.50;0.93;;;5.60;81.40;;;;;;5033547;28;20919;-49
2022/02/07 00:13:29;;;;;;;1.60;0.47;;;5.70;80.10;;;;;;5017475;28;20531;-49
2022/02/07 00:15:57;;;;;;;4.43;0.70;;;5.70;80.00;;;;;;5031853;28;20719;-49
2022/02/07 00:18:24;;;;;;;1.33;0.97;;;5.60;81.30;;;;;;5029489;28;20451;-50
2022/02/07 00:20:51;;;;;;;2.20;0.70;;;5.60;79.50;;;;;;5012701;28;20456;-50
2022/02/07 00:23:18;;;;;;;2.83;0.90;;;5.60;80.00;;;;;;5032472;28;20455;-49
2022/02/07 00:25:45;;;;;;;3.27;0.60;;;5.60;79.50;;;;;;5032768;28;20469;-50
2022/02/07 00:28:12;;;;;;;3.33;0.70;;;5.60;79.50;;;;;;5028843;28;20928;-50
2022/02/07 00:30:40;;;;;;;1.70;0.90;;;5.60;78.70;;;;;;5028456;28;20459;-50
2022/02/07 00:33:07;;;;;;;7.63;1.60;;;5.60;78.90;;;;;;5014136;28;20940;-50
2022/02/07 00:35:34;;;;;;;0.63;0.40;;;5.60;78.40;;;;;;5012826;28;20595;-50
2022/02/07 00:38:06;;;;;;;0.73;0.70;;;5.50;78.80;;;;;;5031399;28;20451;-50
2022/02/07 00:43:35;;;;;;;4.37;1.00;;;5.50;77.60;;;;;;5031308;28;20478;-49
2022/02/07 00:46:09;;;;;;;1.70;0.90;;;5.50;78.00;;;;;;5029035;28;21006;-49
2022/02/07 00:48:37;;;;;;;3.50;1.13;;;5.50;78.50;;;;;;5028338;28;20466;-50
2022/02/07 00:51:05;;;;;;;1.70;0.53;;;5.50;80.00;;;;;;5028430;28;20459;-49
2022/02/07 00:53:33;;;;;;;3.10;0.90;;;5.50;79.80;;;;;;5030147;28;20459;-50
2022/02/07 00:56:02;;;;;;;5.30;1.30;;;5.50;80.30;;;;;;5031383;28;20510;-49
2022/02/07 00:58:29;;;;;;;3.70;1.00;;;5.50;79.20;;;;;;5015885;28;21423;-49
2022/02/07 01:00:55;;;;;;;1.83;1.20;;;5.50;79.00;;;;;;5034247;28;20452;-50
2022/02/07 01:03:23;;;;;;;2.87;1.30;;;5.50;78.80;;;;;;5029770;28;20456;-49
2022/02/07 01:05:50;;;;;;;4.10;1.20;;;5.40;78.80;;;;;;5017765;28;20482;-49
2022/02/07 01:08:21;;;;;;;1.53;1.07;;;5.40;77.80;;;;;;5031437;28;20489;-50
2022/02/07 01:11:07;;;;;;;3.47;0.90;;;5.40;77.90;;;;;;5031706;28;20443;-50
2022/02/07 01:22:01;;;;;;;4.10;1.23;;;5.30;78.30;;;;;;5029492;28;20482;-49
2022/02/07 01:54:46;;;;;;;0.50;0.40;;;5.40;79.40;;;;;;5032030;28;20827;-50
2022/02/07 01:56:43;;;;;;;1.47;1.30;;;5.30;80.60;;;;;;5018014;28;20463;-50
2022/02/07 01:59:10;;;;;;;1.80;0.40;;;5.10;80.70;;;;;;5012259;28;20455;-49
2022/02/07 02:01:37;;;;;;;1.03;0.60;;;4.90;81.20;;;;;;5032031;28;20957;-50
2022/02/07 02:04:05;;;;;;;2.40;0.67;;;4.70;81.50;;;;;;5027686;28;20475;-50
2022/02/07 02:06:32;;;;;;;1.37;0.40;;;4.40;82.20;;;;;;5029577;28;20469;-50
2022/02/07 02:08:59;;;;;;;0.80;0.80;;;4.20;83.00;;;;;;5011154;28;20470;-48
2022/02/07 02:11:26;;;;;;;0.67;0.40;;;4.10;84.00;;;;;;5025214;28;20460;-48
2022/02/07 02:16:54;;;;;;;1.30;0.53;;;3.90;86.30;;;;;;5021528;28;20470;-51
2022/02/07 02:38:53;;;;;;;5.27;1.40;;;4.10;86.70;;;;;;5011525;28;20463;-49
2022/02/07 02:46:52;;;;;;;1.20;0.97;;;4.20;85.50;;;;;;5029502;28;20491;-49
2022/02/07 02:49:19;;;;;;;1.77;0.60;;;4.20;85.50;;;;;;5028149;28;21060;-50
2022/02/07 02:51:46;;;;;;;5.43;1.63;;;4.20;84.70;;;;;;5027201;28;20455;-50
2022/02/07 02:54:13;;;;;;;1.33;0.50;;;4.20;84.20;;;;;;5026738;28;20848;-49
2022/02/07 02:56:40;;;;;;;1.83;0.97;;;4.20;83.70;;;;;;5028848;28;20839;-49
2022/02/07 02:59:07;;;;;;;2.83;0.80;;;4.20;83.00;;;;;;5028802;28;20474;-50
2022/02/07 03:01:35;;;;;;;1.80;0.77;;;4.20;83.20;;;;;;5012199;28;20464;-50
2022/02/07 03:04:01;;;;;;;7.20;1.43;;;4.20;83.20;;;;;;5028065;28;20461;-50
2022/02/07 03:06:28;;;;;;;1.80;0.90;;;4.20;83.60;;;;;;5029018;28;20490;-50
2022/02/07 03:08:55;;;;;;;2.00;1.13;;;4.20;83.10;;;;;;5015920;28;20490;-50
2022/02/07 03:11:24;;;;;;;3.47;1.43;;;4.20;83.20;;;;;;5024701;28;20488;-50
2022/02/07 03:13:54;;;;;;;2.50;1.00;;;4.20;83.10;;;;;;5027464;28;20447;-50
2022/02/07 03:16:38;;;;;;;3.53;2.47;;;4.20;83.10;;;;;;5029590;28;20817;-50
2022/02/07 03:19:06;;;;;;;9.63;2.17;;;4.20;83.30;;;;;;5027317;28;20460;-49
2022/02/07 03:21:33;;;;;;;2.93;1.10;;;4.20;83.70;;;;;;5028581;28;20878;-50
2022/02/07 03:24:01;;;;;;;3.27;1.83;;;4.20;82.80;;;;;;5031882;28;20478;-50
2022/02/07 03:26:38;;;;;;;2.73;1.80;;;4.20;82.70;;;;;;5026114;28;20612;-50
2022/02/07 03:29:07;;;;;;;3.80;1.53;;;4.20;83.00;;;;;;5009942;28;21133;-50
2022/02/07 03:31:34;;;;;;;2.80;1.50;;;4.20;82.10;;;;;;5032726;28;20519;-50
2022/02/07 03:34:01;;;;;;;10.67;1.77;;;4.30;82.40;;;;;;5047590;28;20460;-50
2022/02/07 03:36:30;;;;;;;5.00;1.70;;;4.30;82.40;;;;;;5046847;28;20459;-50
2022/02/07 03:38:58;;;;;;;2.97;1.40;;;4.30;83.10;;;;;;5046667;28;20467;-50
2022/02/07 03:41:25;;;;;;;4.47;1.00;;;4.30;83.50;;;;;;5043643;28;20550;-50
2022/02/07 03:43:52;;;;;;;1.77;1.17;;;4.30;83.80;;;;;;5047069;28;20478;-50
2022/02/07 03:46:19;;;;;;;1.40;0.90;;;4.20;84.80;;;;;;5046354;28;20479;-50
2022/02/07 03:48:46;;;;;;;3.90;1.73;;;4.20;85.60;;;;;;5029638;28;20890;-50
2022/02/07 03:51:12;;;;;;;3.73;1.10;;;4.20;85.60;;;;;;5038470;28;20459;-50
2022/02/07 03:53:39;;;;;;;5.60;1.43;;;4.20;85.70;;;;;;5045880;28;20462;-50
2022/02/07 03:56:06;;;;;;;6.97;1.40;;;4.10;84.90;;;;;;5043695;28;20972;-50
2022/02/07 03:58:33;;;;;;;2.00;0.93;;;4.10;85.00;;;;;;5039648;28;20503;-47
2022/02/07 04:01:00;;;;;;;1.70;1.37;;;4.10;85.50;;;;;;5026707;28;20600;-47
2022/02/07 04:03:30;;;;;;;3.63;1.40;;;4.20;85.90;;;;;;5026256;28;20459;-47
2022/02/07 04:06:01;;;;;;;2.87;1.47;;;4.20;85.50;;;;;;5026623;28;20952;-47
2022/02/07 04:08:34;;;;;;;6.67;1.67;;;4.20;85.50;;;;;;5009142;28;20983;-46
2022/02/07 04:11:19;;;;;;;1.40;0.87;;;4.20;85.70;;;;;;5027488;28;20459;-47
2022/02/07 04:13:50;;;;;;;3.27;1.00;;;4.20;86.20;;;;;;5009225;28;20546;-47
2022/02/07 04:16:18;;;;;;;3.83;1.90;;;4.20;85.80;;;;;;5028137;28;20455;-46
2022/02/07 04:19:15;;;;;;;4.43;1.07;;;4.20;85.70;;;;;;5024674;28;20470;-47
2022/02/07 04:21:33;;;;;;;2.37;1.47;;;4.20;85.90;;;;;;5026172;28;20466;-47
2022/02/07 04:24:00;;;;;;;6.07;1.50;;;4.20;86.30;;;;;;5026167;28;20470;-47
2022/02/07 04:26:27;;;;;;;5.30;1.87;;;4.20;86.30;;;;;;5025618;28;20467;-46
2022/02/07 04:28:53;;;;;;;3.10;1.53;;;4.20;85.70;;;;;;5025839;28;20489;-46
2022/02/07 04:31:20;;;;;;;3.13;1.00;;;4.20;85.60;;;;;;5025357;28;20491;-47
2022/02/07 04:33:47;;;;;;;3.33;1.30;;;4.20;86.00;;;;;;5026751;28;20460;-47
2022/02/07 04:36:14;;;;;;;3.67;1.10;;;4.20;85.00;;;;;;5025554;28;20470;-47
2022/02/07 04:38:41;;;;;;;3.63;1.30;;;4.20;84.50;;;;;;5010760;28;20483;-47
2022/02/07 04:41:09;;;;;;;7.37;1.60;;;4.20;84.50;;;;;;5026010;28;21038;-47
2022/02/07 04:43:40;;;;;;;1.73;0.87;;;4.20;84.80;;;;;;5023355;28;20463;-47
2022/02/07 04:46:28;;;;;;;4.30;1.63;;;4.20;84.70;;;;;;5026551;28;20506;-47
2022/02/07 04:54:08;;;;;;;;;;;;;;;;;;;;;
2022/02/07 05:01:32;;;;;;;3.50;1.80;;;4.20;83.60;;;;;;5024834;28;20960;-46
2022/02/07 05:04:09;;;;;;;4.90;1.33;;;4.30;82.90;;;;;;5023989;28;20470;-46
2022/02/07 05:14:52;;;;;;;3.70;1.30;;;4.30;82.90;;;;;;5022968;28;20473;-47
2022/02/07 05:17:20;;;;;;;3.50;1.40;;;4.30;81.90;;;;;;5026127;28;20909;-47
2022/02/07 05:19:48;;;;;;;8.80;1.93;;;4.30;81.70;;;;;;5022659;28;20478;-47
2022/02/07 05:22:16;;;;;;;4.30;1.53;;;4.30;82.10;;;;;;5006118;28;21277;-47
2022/02/07 05:24:42;;;;;;;3.70;1.40;;;4.30;82.20;;;;;;5025416;28;20502;-47
2022/02/07 05:27:09;;;;;;;2.83;1.10;;;4.30;82.20;;;;;;5008490;28;20528;-47
2022/02/07 05:29:36;;;;;;;5.90;2.00;;;4.40;81.70;;;;;;5008640;28;20491;-47
2022/02/07 05:32:03;;;;;;;3.90;1.80;;;4.40;81.90;;;;;;5005935;28;20462;-46
2022/02/07 05:34:35;;;;;;;7.97;2.63;;;4.40;81.40;;;;;;4993353;28;21279;-47
2022/02/07 05:37:02;;;;;;;3.00;1.27;;;4.40;81.80;;;;;;5024878;28;20470;-47
2022/02/07 05:39:33;;;;;;;5.83;2.03;;;4.40;80.90;;;;;;5025042;28;20483;-47
2022/02/07 05:42:05;;;;;;;5.70;2.30;;;4.40;81.10;;;;;;5022558;28;20835;-48
2022/02/07 05:44:33;;;;;;;4.27;1.70;;;4.40;80.80;;;;;;5025189;28;20463;-47
2022/02/07 05:47:00;;;;;;;5.40;1.33;;;4.40;80.90;;;;;;5025724;28;20487;-47
2022/02/07 05:49:27;;;;;;;7.70;1.40;;;4.40;81.10;;;;;;5007699;28;20497;-47
2022/02/07 05:51:54;;;;;;;5.60;1.70;;;4.40;80.80;;;;;;5023780;28;20455;-47
2022/02/07 05:54:21;;;;;;;5.03;1.33;;;4.40;80.90;;;;;;5010153;28;20467;-47
2022/02/07 05:56:49;;;;;;;6.87;1.70;;;4.40;80.50;;;;;;5031321;28;20471;-50
2022/02/07 05:59:16;;;;;;;8.60;1.53;;;4.40;80.30;;;;;;5045600;28;20459;-50
2022/02/07 06:01:42;;;;;;;9.23;1.83;;;4.40;81.20;;;;;;5029863;28;20463;-47
2022/02/07 06:04:11;;;;;;;2.30;1.40;;;4.40;80.60;;;;;;5026510;28;20471;-47
2022/02/07 06:06:37;;;;;;;2.07;1.50;;;4.50;80.80;;;;;;5024983;28;20982;-48
2022/02/07 06:09:04;;;;;;;3.27;1.50;;;4.50;80.20;;;;;;5026440;28;21003;-48
2022/02/07 06:11:31;;;;;;;6.97;1.70;;;4.50;81.00;;;;;;5024340;28;20470;-47
2022/02/07 06:13:58;;;;;;;8.10;2.03;;;4.50;80.20;;;;;;5024367;28;20841;-47
2022/02/07 06:16:24;;;;;;;4.23;2.27;;;4.50;80.10;;;;;;5025872;28;20974;-48
2022/02/07 06:18:52;;;;;;;4.70;1.60;;;4.60;80.10;;;;;;5026626;28;20829;-46
2022/02/07 06:21:19;;;;;;;5.00;1.60;;;4.50;79.80;;;;;;5024423;28;20554;-47
2022/02/07 06:23:45;;;;;;;6.73;1.70;;;4.60;80.20;;;;;;5025481;28;20459;-48
2022/02/07 06:26:12;;;;;;;2.47;1.20;;;4.60;80.50;;;;;;5025645;28;20468;-51
2022/02/07 06:28:39;;;;;;;5.03;1.60;;;4.60;80.00;;;;;;5029009;28;21087;-50
2022/02/07 06:31:05;;;;;;;13.90;2.10;;;4.60;79.80;;;;;;5007998;28;20979;-50
2022/02/07 06:33:32;;;;;;;5.20;1.47;;;4.60;80.20;;;;;;5028241;28;20469;-50
2022/02/07 06:35:59;;;;;;;7.60;1.97;;;4.60;79.80;;;;;;5031774;28;20936;-50
2022/02/07 06:38:26;;;;;;;4.00;1.37;;;4.60;79.70;;;;;;5026024;28;20467;-50
2022/02/07 06:40:53;;;;;;;4.43;1.27;;;4.60;79.80;;;;;;5024212;28;20509;-50
2022/02/07 06:43:22;;;;;;;2.27;1.13;;;4.70;79.70;;;;;;5025914;28;20581;-50
2022/02/07 06:45:49;;;;;;;10.43;1.90;;;4.60;79.50;;;;;;5030267;28;20970;-47
2022/02/07 06:48:16;;;;;;;4.97;1.50;;;4.60;80.20;;;;;;5029855;28;20497;-47
2022/02/07 06:50:43;;;;;;;7.50;1.77;;;4.60;80.50;;;;;;5013418;28;20463;-47
2022/02/07 06:53:12;;;;;;;5.70;1.47;;;4.60;80.10;;;;;;5026264;28;20460;-50
2022/02/07 06:55:39;;;;;;;5.33;1.70;;;4.60;80.70;;;;;;5027474;28;20830;-50
2022/02/07 06:58:06;;;;;;;8.97;1.60;;;4.70;80.50;;;;;;5045787;28;20474;-50
2022/02/07 07:00:33;;;;;;;2.13;1.40;;;4.70;80.10;;;;;;5048466;28;20558;-50
2022/02/07 07:03:00;;;;;;;9.13;1.70;;;4.70;79.60;;;;;;5047461;28;20522;-50
2022/02/07 07:05:27;;;;;;;4.70;1.67;;;4.80;80.10;;;;;;5028483;28;20915;-51
2022/02/07 07:08:00;;;;;;;3.60;1.43;;;4.70;79.60;;;;;;5047339;28;20458;-50
2022/02/07 07:10:27;;;;;;;4.47;1.23;;;4.70;79.70;;;;;;5044596;28;20859;-51
2022/02/07 07:13:02;;;;;;;3.40;1.50;;;4.80;80.40;;;;;;5047670;28;20537;-51
2022/02/07 07:15:39;;;;;;;3.50;1.20;;;4.80;80.00;;;;;;5047033;28;20482;-49
2022/02/07 07:18:06;;;;;;;9.03;1.53;;;4.80;79.10;;;;;;5045361;28;20457;-51
2022/02/07 07:20:37;;;;;;;4.77;2.20;;;4.80;79.10;;;;;;5043817;28;20463;-50
2022/02/07 07:23:05;;;;;;;3.67;1.67;;;4.80;79.80;;;;;;5042735;28;20523;-50
2022/02/07 07:25:35;;;;;;;4.67;1.90;;;4.80;80.30;;;;;;5050204;28;20464;-50
2022/02/07 07:28:06;;;;;;;3.80;1.73;;;4.80;80.50;;;;;;5044070;28;20471;-51
2022/02/07 07:30:38;;;;;;;8.00;1.50;;;4.80;80.60;;;;;;5042598;28;20453;-50
2022/02/07 07:33:10;;;;;;;5.30;1.63;;;4.80;80.40;;;;;;5027919;28;20516;-50
2022/02/07 07:35:37;;;;;;;7.63;1.67;;;4.80;80.30;;;;;;5047701;28;20456;-51
2022/02/07 07:38:03;;;;;;;7.03;1.40;;;4.80;80.50;;;;;;5045108;28;20469;-50
2022/02/07 07:40:30;;;;;;;6.40;1.17;;;4.90;80.30;;;;;;5026753;28;20466;-50
2022/02/07 07:43:09;;;;;;;7.00;1.80;;;4.80;80.50;;;;;;5038807;28;20451;-51
2022/02/07 07:45:46;;;;;;;3.03;1.00;;;4.80;80.10;;;;;;5044092;28;20523;-51
2022/02/07 07:48:19;;;;;;;7.63;1.33;;;4.80;80.10;;;;;;5045499;28;20468;-50
2022/02/07 08:01:38;;;;;;;3.50;1.17;;;4.90;79.80;;;;;;5033196;28;20581;-50
2022/02/07 08:04:07;;;;;;;5.00;1.90;;;4.90;79.90;;;;;;5045639;28;20519;-49
2022/02/07 08:06:54;;;;;;;7.20;1.67;;;4.90;80.20;;;;;;5024126;28;20533;-49
2022/02/07 08:12:03;;;;;;;3.07;1.60;;;5.00;80.50;;;;;;5044604;28;20895;-49
2022/02/07 08:14:35;;;;;;;5.43;1.60;;;5.00;80.10;;;;;;5044785;28;20451;-49
2022/02/07 08:17:23;;;;;;;3.10;1.50;;;5.10;79.70;;;;;;5029743;28;20459;-49
2022/02/07 08:19:51;;;;;;;7.47;2.40;;;5.20;79.70;;;;;;5041522;28;20542;-50
2022/02/07 08:22:19;;;;;;;2.23;1.10;;;5.20;79.50;;;;;;5023927;28;20539;-50
2022/02/07 08:24:46;;;;;;;11.47;1.60;;;5.30;79.60;;;;;;5026413;28;20486;-50
2022/02/07 08:27:13;;;;;;;3.43;1.80;;;5.30;79.60;;;;;;5043985;28;20539;-50
2022/02/07 08:29:40;;;;;;;7.63;1.37;;;5.30;79.20;;;;;;5043427;28;20523;-49
2022/02/07 08:32:08;;;;;;;7.87;3.23;;;5.40;78.80;;;;;;5027490;28;20454;-50
2022/02/07 08:34:35;;;;;;;3.00;1.17;;;5.40;79.00;;;;;;5045531;28;20542;-50
2022/02/07 08:37:02;;;;;;;7.17;1.83;;;5.40;78.90;;;;;;5043733;28;20466;-50
2022/02/07 08:39:29;;;;;;;4.03;2.07;;;5.40;78.30;;;;;;5028371;28;21050;-49
2022/02/07 08:41:56;;;;;;;6.20;1.60;;;5.40;78.00;;;;;;5028769;28;20550;-47
2022/02/07 08:44:24;;;;;;;5.63;1.60;;;5.40;78.50;;;;;;5028610;28;20493;-47
2022/02/07 08:46:56;;;;;;;3.93;1.40;;;5.50;78.70;;;;;;5024415;28;21011;-47
2022/02/07 08:49:23;;;;;;;3.20;1.60;;;5.50;78.50;;;;;;5026456;28;20483;-47
2022/02/07 08:51:50;;;;;;;3.47;1.20;;;5.50;79.40;;;;;;5025716;28;20459;-48
2022/02/07 08:54:24;;;;;;;15.53;2.30;;;5.60;78.70;;;;;;5025919;28;20467;-48
2022/02/07 08:56:57;;;;;;;3.20;1.53;;;5.70;78.50;;;;;;5005680;28;20634;-47
2022/02/07 08:59:33;;;;;;;9.73;2.07;;;5.80;77.50;;;;;;5025949;28;20464;-48
2022/02/07 09:05:14;;;;;;;4.37;1.77;;;5.90;77.30;;;;;;4993682;28;20464;-47
2022/02/07 09:07:48;;;;;;;3.23;1.10;;;5.90;77.70;;;;;;5018966;28;20475;-47
2022/02/07 09:10:17;;;;;;;6.27;1.80;;;6.00;77.40;;;;;;5022604;28;21008;-47
2022/02/07 09:12:47;;;;;;;4.30;1.43;;;6.10;77.20;;;;;;5022666;28;20467;-47
2022/02/07 09:15:41;;;;;;;7.40;1.80;;;6.10;76.60;;;;;;5026158;28;20487;-47
2022/02/07 09:18:11;;;;;;;4.17;1.40;;;6.20;76.30;;;;;;5026039;28;20502;-47
2022/02/07 09:20:43;;;;;;;3.83;1.47;;;6.30;76.20;;;;;;5019495;28;20467;-47
2022/02/07 09:23:10;;;;;;;5.90;1.70;;;6.40;76.00;;;;;;5020582;28;20474;-47
2022/02/07 09:25:37;;;;;;;5.07;2.03;;;6.50;75.70;;;;;;5003134;28;20773;-46
2022/02/07 09:28:04;;;;;;;9.47;2.27;;;6.60;76.50;;;;;;5005675;28;20542;-47
2022/02/07 09:30:31;;;;;;;1.80;1.23;;;6.70;75.20;;;;;;5010346;28;20491;-46
2022/02/07 09:32:58;;;;;;;3.50;1.73;;;6.70;74.80;;;;;;5027295;28;20480;-46
2022/02/07 09:35:25;;;;;;;2.50;1.80;;;6.80;75.10;;;;;;5025981;28;20470;-46
2022/02/07 09:37:53;;;;;;;3.07;1.67;;;6.90;75.20;;;;;;5018614;28;20459;-47
2022/02/07 09:40:21;;;;;;;4.00;1.63;;;6.90;74.50;;;;;;5004458;28;20967;-46
2022/02/07 09:42:55;;;;;;;6.80;1.80;;;7.00;74.30;;;;;;5020364;28;20467;-47
2022/02/07 09:45:31;;;;;;;8.97;1.70;;;7.00;74.20;;;;;;5022993;28;20481;-46
2022/02/07 09:48:00;;;;;;;8.70;1.60;;;7.10;75.30;;;;;;5022188;28;21073;-47
2022/02/07 09:50:27;;;;;;;8.20;1.63;;;7.20;74.30;;;;;;5024794;28;20487;-47
2022/02/07 09:52:54;;;;;;;7.03;1.90;;;7.20;74.60;;;;;;5006884;28;20471;-46
2022/02/07 09:55:21;;;;;;;4.00;1.30;;;7.30;74.90;;;;;;5020608;28;20462;-47
2022/02/07 09:57:52;;;;;;;4.50;1.50;;;7.40;74.90;;;;;;5006928;28;20463;-47
2022/02/07 10:00:30;;;;;;;4.10;1.50;;;7.50;74.20;;;;;;5024859;28;20563;-46
2022/02/07 10:05:50;;;;;;;3.10;1.53;;;7.50;72.90;;;;;;5022867;28;20481;-46
2022/02/07 10:08:48;;;;;;;6.83;3.77;;;7.40;73.00;;;;;;5025095;28;20651;-46
2022/02/07 10:11:20;;;;;;;8.40;2.37;;;7.30;73.60;;;;;;5026323;28;20968;-47
2022/02/07 10:19:03;;;;;;;3.00;1.50;;;7.10;74.50;;;;;;5026790;28;20531;-50
2022/02/07 10:38:24;;;;;;;2.27;1.37;;;7.30;75.60;;;;;;5025159;28;20461;-50
2022/02/07 10:44:08;;;;;;;6.10;1.63;;;7.50;74.80;;;;;;5030739;28;20936;-47
2022/02/07 10:46:50;;;;;;;5.80;1.50;;;7.50;75.20;;;;;;5031610;28;20510;-48
2022/02/07 10:49:21;;;;;;;4.70;1.70;;;7.60;75.50;;;;;;5038277;28;20486;-49
2022/02/07 10:51:59;;;;;;;3.80;1.10;;;7.60;75.20;;;;;;5009671;28;20464;-46
2022/02/07 10:54:27;;;;;;;3.63;1.47;;;7.60;75.90;;;;;;5008499;28;20875;-45
2022/02/07 10:56:55;;;;;;;4.90;1.83;;;7.60;75.70;;;;;;5027651;28;20455;-46
2022/02/07 10:59:23;;;;;;;4.43;1.60;;;7.70;76.20;;;;;;5026444;28;20462;-46
2022/02/07 11:04:36;;;;;;;3.30;1.70;;;7.80;75.20;;;;;;5014052;28;20970;-46
2022/02/07 11:07:04;;;;;;;3.40;1.57;;;8.00;75.80;;;;;;5030861;28;20448;-46
2022/02/07 11:17:42;;;;;;;5.13;1.57;;;8.20;76.60;;;;;;5028339;28;20466;-47
2022/02/07 11:20:27;;;;;;;3.13;1.97;;;8.30;76.00;;;;;;5029149;28;20838;-46
2022/02/07 11:28:25;;;;;;;4.63;2.00;;;8.10;74.20;;;;;;5028814;28;20524;-46
2022/02/07 11:31:04;;;;;;;8.13;3.50;;;8.00;75.50;;;;;;5028375;28;20475;-46
2022/02/07 11:34:03;;;;;;;7.10;1.97;;;8.00;75.20;;;;;;5028598;28;20975;-46
2022/02/07 11:36:34;;;;;;;5.63;1.80;;;7.90;75.30;;;;;;5026778;28;20499;-47
2022/02/07 11:39:11;;;;;;;7.07;1.90;;;7.80;75.80;;;;;;5028208;28;20578;-47
2022/02/07 11:41:53;;;;;;;3.97;1.80;;;7.80;75.90;;;;;;5025434;28;20849;-46
2022/02/07 11:44:38;;;;;;;3.87;1.57;;;7.90;75.60;;;;;;5029150;28;20450;-47
2022/02/07 11:47:21;;;;;;;7.50;2.00;;;7.90;74.80;;;;;;5026917;28;20483;-46
2022/02/07 11:49:53;;;;;;;7.20;3.50;;;7.90;75.20;;;;;;5027391;28;20495;-46
2022/02/07 11:52:47;;;;;;;4.53;2.10;;;7.90;75.70;;;;;;5026374;28;20467;-46
2022/02/07 11:55:20;;;;;;;5.57;1.80;;;7.90;74.00;;;;;;5025754;28;20456;-47
2022/02/07 11:58:10;;;;;;;4.23;1.73;;;7.90;72.90;;;;;;5026799;28;20455;-47
2022/02/07 12:00:46;;;;;;;1.43;1.33;;;7.80;73.30;;;;;;5025116;28;20474;-46
2022/02/07 12:03:16;;;;;;;6.40;2.97;;;7.90;73.40;;;;;;5027834;28;20493;-46
2022/02/07 12:05:49;;;;;;;6.77;3.10;;;7.90;73.80;;;;;;5022323;28;20467;-46
2022/02/07 12:08:21;;;;;;;4.63;2.07;;;8.00;73.10;;;;;;5025035;28;20550;-46
2022/02/07 12:11:10;;;;;;;4.70;1.73;;;8.00;72.20;;;;;;5028643;28;21010;-45
2022/02/07 12:13:41;;;;;;;6.60;2.00;;;8.10;73.10;;;;;;5028163;28;20462;-46
2022/02/07 12:16:23;;;;;;;2.70;1.87;;;8.20;72.60;;;;;;5005028;28;20982;-46
2022/02/07 12:18:58;;;;;;;4.30;2.00;;;8.20;71.10;;;;;;5026605;28;20451;-46
2022/02/07 12:21:27;;;;;;;6.03;1.80;;;8.30;70.90;;;;;;5026431;28;20459;-47
2022/02/07 12:23:57;;;;;;;5.63;1.57;;;8.40;71.20;;;;;;5027513;28;20871;-47
2022/02/07 12:26:25;;;;;;;5.60;1.70;;;8.50;70.80;;;;;;5006434;28;20468;-47
2022/02/07 12:28:59;;;;;;;3.70;1.30;;;8.50;68.70;;;;;;5008060;28;20473;-47
2022/02/07 12:31:28;;;;;;;5.50;1.97;;;8.50;69.20;;;;;;5025643;28;21221;-47
2022/02/07 12:34:03;;;;;;;4.63;2.50;;;8.50;68.30;;;;;;4989526;28;20968;-47
2022/02/07 12:36:35;;;;;;;5.50;1.50;;;8.50;68.10;;;;;;5025010;28;20455;-47
2022/02/07 12:39:15;;;;;;;4.27;2.80;;;8.50;67.90;;;;;;5011467;28;20952;-47
2022/02/07 12:41:44;;;;;;;5.47;1.23;;;8.40;68.30;;;;;;5025755;28;20568;-45
2022/02/07 12:44:17;;;;;;;3.83;1.70;;;8.40;68.40;;;;;;5024854;28;20466;-46
2022/02/07 12:46:46;;;;;;;2.60;1.70;;;8.40;68.80;;;;;;5024795;28;20482;-46
2022/02/07 12:49:14;;;;;;;4.27;1.40;;;8.50;69.10;;;;;;5025773;28;21016;-46
2022/02/07 12:51:44;;;;;;;5.20;1.97;;;8.60;68.90;;;;;;5020988;28;20464;-46
2022/02/07 12:54:12;;;;;;;7.77;1.80;;;8.60;68.10;;;;;;5021035;28;20463;-46
2022/02/07 12:56:39;;;;;;;3.53;2.10;;;8.70;67.20;;;;;;5006551;28;20451;-46
2022/02/07 12:59:07;;;;;;;6.70;1.63;;;8.70;67.40;;;;;;5022993;28;20474;-46
2022/02/07 13:01:42;;;;;;;3.10;1.40;;;8.80;66.70;;;;;;5026325;28;20475;-46
2022/02/07 13:04:17;;;;;;;3.33;1.73;;;8.90;66.40;;;;;;5027619;28;20451;-46
2022/02/07 13:06:49;;;;;;;8.37;1.70;;;8.80;65.60;;;;;;5016216;28;20780;-46
2022/02/07 13:09:27;;;;;;;6.83;2.20;;;8.80;66.20;;;;;;5022848;28;20823;-46
2022/02/07 13:14:43;;;;;;;5.03;1.73;;;8.90;64.80;;;;;;5027289;28;20451;-47
2022/02/07 13:17:11;;;;;;;4.77;1.93;;;9.00;65.10;;;;;;5029349;28;20460;-47
2022/02/07 13:19:43;;;;;;;5.20;1.60;;;9.00;63.80;;;;;;5002876;28;20983;-47
2022/02/07 13:22:13;;;;;;;3.73;1.53;;;9.00;63.60;;;;;;5009455;28;20459;-47
2022/02/07 13:24:40;;;;;;;9.67;2.00;;;9.00;64.40;;;;;;5024878;28;20546;-46
2022/02/07 13:27:09;;;;;;;2.00;1.50;;;9.10;65.20;;;;;;5015674;28;20462;-46
2022/02/07 13:29:42;;;;;;;4.53;1.47;;;9.10;64.30;;;;;;5026468;28;20467;-47
2022/02/07 13:32:09;;;;;;;5.10;1.73;;;9.10;65.40;;;;;;5023477;28;20457;-46
2022/02/07 13:34:38;;;;;;;8.00;2.13;;;9.20;64.10;;;;;;5025076;28;20960;-46
2022/02/07 13:37:26;;;;;;;3.30;1.90;;;9.20;62.50;;;;;;5026959;28;20526;-46
2022/02/07 13:40:07;;;;;;;2.03;1.43;;;9.20;63.20;;;;;;5026593;28;20462;-46
2022/02/07 13:42:38;;;;;;;4.33;1.87;;;9.20;63.20;;;;;;5024092;28;20897;-46
2022/02/07 13:45:08;;;;;;;7.20;1.40;;;9.20;63.60;;;;;;5005630;28;20459;-46
2022/02/07 13:47:38;;;;;;;4.70;1.50;;;9.20;63.40;;;;;;5026790;28;20478;-47
2022/02/07 13:50:08;;;;;;;2.53;1.50;;;9.30;64.40;;;;;;5026042;28;20475;-47
2022/02/07 13:52:48;;;;;;;5.00;1.93;;;9.40;62.80;;;;;;4988264;28;20942;-46
2022/02/07 13:55:35;;;;;;;3.80;1.70;;;9.40;61.80;;;;;;5029491;28;20462;-46
2022/02/07 13:58:09;;;;;;;2.40;1.40;;;9.40;62.10;;;;;;5031510;28;20495;-46
2022/02/07 14:00:49;;;;;;;4.50;1.50;;;9.40;62.60;;;;;;5015396;28;20459;-47
2022/02/07 14:03:19;;;;;;;4.23;1.30;;;9.40;63.40;;;;;;5028392;28;20478;-47
2022/02/07 14:05:55;;;;;;;3.20;1.60;;;9.40;61.70;;;;;;5014848;28;20866;-47
2022/02/07 14:08:31;;;;;;;4.23;1.40;;;9.50;62.40;;;;;;5024071;28;20963;-47
2022/02/07 14:10:57;;;;;;;4.17;1.70;;;9.50;61.90;;;;;;5027257;28;20483;-47
2022/02/07 14:13:25;;;;;;;3.13;1.20;;;9.50;62.00;;;;;;5011346;28;20459;-47
2022/02/07 14:15:52;;;;;;;5.60;2.10;;;9.50;62.50;;;;;;5029846;28;21029;-48
2022/02/07 14:18:20;;;;;;;3.83;1.93;;;9.50;62.00;;;;;;5029126;28;20850;-48
2022/02/07 14:20:47;;;;;;;6.00;1.30;;;9.50;63.40;;;;;;5028662;28;20467;-47
2022/02/07 14:23:16;;;;;;;4.43;1.73;;;9.50;62.80;;;;;;5030452;28;20448;-48
2022/02/07 14:25:44;;;;;;;2.83;1.27;;;9.50;63.30;;;;;;5030172;28;20513;-47
2022/02/07 14:28:14;;;;;;;4.37;1.20;;;9.50;62.50;;;;;;5027374;28;20468;-47
2022/02/07 14:30:42;;;;;;;2.90;1.43;;;9.50;63.40;;;;;;5007638;28;20491;-47
2022/02/07 14:33:08;;;;;;;5.27;1.53;;;9.50;62.90;;;;;;5028313;28;20460;-48
2022/02/07 14:35:36;;;;;;;4.07;2.13;;;9.40;63.50;;;;;;5028077;28;20839;-48
2022/02/07 14:38:05;;;;;;;1.93;1.13;;;9.50;63.80;;;;;;5029402;28;20454;-48
2022/02/07 14:40:38;;;;;;;5.17;1.90;;;9.50;64.30;;;;;;5013670;28;20473;-48
2022/02/07 14:43:08;;;;;;;4.63;1.90;;;9.50;63.00;;;;;;5028305;28;20968;-48
2022/02/07 14:45:41;;;;;;;3.80;1.10;;;9.50;63.90;;;;;;5029982;28;20542;-47
2022/02/07 14:48:08;;;;;;;3.87;1.50;;;9.50;63.40;;;;;;5028243;28;20890;-48
2022/02/07 14:50:35;;;;;;;4.03;1.47;;;9.40;62.40;;;;;;5028411;28;20498;-48
2022/02/07 14:53:04;;;;;;;2.63;1.30;;;9.40;63.50;;;;;;5027160;28;20460;-47
2022/02/07 14:55:30;;;;;;;3.60;1.33;;;9.30;63.70;;;;;;5028232;28;20459;-48
2022/02/07 14:57:57;;;;;;;7.63;1.27;;;9.30;64.00;;;;;;5029254;28;20955;-48
2022/02/07 15:00:28;;;;;;;8.60;2.07;;;9.30;64.20;;;;;;5027601;28;20467;-48
2022/02/07 15:02:58;;;;;;;2.50;1.60;;;9.20;64.10;;;;;;4993171;28;20460;-47
2022/02/07 15:05:26;;;;;;;2.73;1.40;;;9.20;64.30;;;;;;5026825;28;20466;-47
2022/02/07 15:07:53;;;;;;;3.27;1.27;;;9.10;63.50;;;;;;4989766;28;20471;-48
2022/02/07 15:10:20;;;;;;;3.47;1.53;;;9.00;64.40;;;;;;5026787;28;20575;-48
2022/02/07 15:12:47;;;;;;;6.90;1.50;;;9.00;64.40;;;;;;5027172;28;20474;-48
2022/02/07 15:15:14;;;;;;;1.83;1.37;;;9.00;65.20;;;;;;5028972;28;20463;-48
2022/02/07 15:17:42;;;;;;;2.13;1.30;;;8.90;65.70;;;;;;5026849;28;20541;-48
2022/02/07 15:20:13;;;;;;;4.00;1.37;;;8.90;66.30;;;;;;5029603;28;20460;-47
2022/02/07 15:22:48;;;;;;;4.20;1.97;;;8.90;66.70;;;;;;5026928;28;20451;-47
2022/02/07 15:25:28;;;;;;;2.60;1.50;;;8.80;66.70;;;;;;5025821;28;20862;-47
2022/02/07 15:27:55;;;;;;;4.33;1.50;;;8.70;66.00;;;;;;5028207;28;20462;-47
2022/02/07 15:30:41;;;;;;;5.23;1.40;;;8.70;65.70;;;;;;5028567;28;20483;-47
2022/02/07 15:33:13;;;;;;;3.43;1.60;;;8.60;65.50;;;;;;5024522;28;20471;-48
2022/02/07 15:35:44;;;;;;;3.60;2.60;;;8.40;66.10;;;;;;5025067;28;20451;-47
2022/02/07 15:38:11;;;;;;;4.70;3.37;;;8.30;66.90;;;;;;5024672;28;20463;-47
2022/02/07 15:40:38;;;;;;;7.00;1.73;;;8.20;67.70;;;;;;5007715;28;20463;-47
2022/02/07 15:43:05;;;;;;;8.30;1.80;;;8.20;66.90;;;;;;5008222;28;21059;-47
2022/02/07 15:45:33;;;;;;;4.87;1.57;;;8.10;67.60;;;;;;5020600;28;20498;-48